Time;durP1;ratioP1;P1;durP2;ratioP2;P2;SDS_P1;SDS_P2;PMS_P1;PMS_P2;Temp;Humidity;BMP_temperature;BMP_pressure;BME280_temperature;BME280_humidity;BME280_pressure;Samples;Min_cycle;Max_cycle;Signal;HPM_P1;HPM_P2
2020/12/14 00:00:11;;;;;;;5.50;4.17;;;3.00;99.90;;;;;;5035355;28;20469;-68
2020/12/14 00:02:38;;;;;;;6.10;4.33;;;3.00;99.90;;;;;;5035346;28;20431;-68
2020/12/14 00:05:05;;;;;;;4.87;3.90;;;3.10;99.90;;;;;;5035280;28;20792;-68
2020/12/14 00:07:31;;;;;;;6.57;4.10;;;3.20;99.90;;;;;;5034963;28;20869;-68
2020/12/14 00:09:59;;;;;;;4.67;3.90;;;3.20;99.90;;;;;;5035102;28;20443;-68
2020/12/14 00:12:25;;;;;;;5.43;4.23;;;3.30;99.90;;;;;;5035155;28;20464;-68
2020/12/14 00:14:52;;;;;;;4.57;3.73;;;3.40;99.90;;;;;;5035063;28;20855;-68
2020/12/14 00:17:19;;;;;;;4.83;4.20;;;3.50;99.90;;;;;;5034614;28;20485;-68
2020/12/14 00:19:45;;;;;;;3.63;3.30;;;3.40;99.90;;;;;;5034874;28;20477;-68
2020/12/14 00:22:12;;;;;;;5.30;4.30;;;3.40;99.90;;;;;;5035155;28;20454;-68
2020/12/14 00:24:38;;;;;;;3.83;3.40;;;3.40;99.90;;;;;;5034274;28;20442;-68
2020/12/14 00:27:04;;;;;;;4.13;3.33;;;3.40;99.90;;;;;;5034621;28;20439;-68
2020/12/14 00:29:31;;;;;;;4.20;3.83;;;3.40;99.90;;;;;;5034811;28;20443;-68
2020/12/14 00:31:58;;;;;;;4.33;3.83;;;3.40;99.90;;;;;;5034671;28;20466;-68
2020/12/14 00:34:25;;;;;;;4.00;3.30;;;3.50;99.90;;;;;;5034719;28;20443;-68
2020/12/14 00:36:51;;;;;;;6.03;4.30;;;3.40;99.90;;;;;;5034254;28;20954;-68
2020/12/14 00:39:17;;;;;;;3.90;3.00;;;3.40;99.90;;;;;;5034310;28;20847;-68
2020/12/14 00:41:44;;;;;;;3.57;3.27;;;3.50;99.90;;;;;;5034492;28;20458;-68
2020/12/14 00:44:10;;;;;;;3.70;3.33;;;3.50;99.90;;;;;;5034554;28;20450;-68
2020/12/14 00:46:37;;;;;;;4.33;3.30;;;3.40;99.90;;;;;;5034128;28;20930;-68
2020/12/14 00:49:04;;;;;;;3.63;3.33;;;3.30;99.90;;;;;;5034401;28;20450;-68
2020/12/14 00:51:31;;;;;;;5.60;4.70;;;3.30;99.90;;;;;;5034343;28;20458;-68
2020/12/14 00:53:58;;;;;;;4.13;3.10;;;3.30;99.90;;;;;;5034027;28;20442;-68
2020/12/14 00:56:25;;;;;;;6.53;3.60;;;3.20;99.90;;;;;;5034314;28;20443;-68
2020/12/14 00:58:51;;;;;;;4.80;3.43;;;3.10;99.90;;;;;;5034185;28;20482;-68
2020/12/14 01:01:19;;;;;;;4.23;3.80;;;3.10;99.90;;;;;;5034226;28;20820;-68
2020/12/14 01:03:45;;;;;;;3.60;3.30;;;3.00;99.90;;;;;;5034161;28;20446;-68
2020/12/14 01:06:13;;;;;;;5.73;3.57;;;2.90;99.90;;;;;;5034112;28;20443;-68
2020/12/14 01:08:40;;;;;;;4.37;3.90;;;2.90;99.90;;;;;;5034105;28;20477;-68
2020/12/14 01:11:07;;;;;;;4.30;3.90;;;2.80;99.90;;;;;;5034221;28;20463;-68
2020/12/14 01:13:33;;;;;;;4.07;3.50;;;2.80;99.90;;;;;;5033987;28;20442;-68
2020/12/14 01:15:59;;;;;;;4.43;3.43;;;2.70;99.90;;;;;;5033944;28;20424;-68
2020/12/14 01:18:25;;;;;;;3.93;3.50;;;2.70;99.90;;;;;;5033841;28;20482;-68
2020/12/14 01:20:51;;;;;;;4.03;3.37;;;2.70;99.90;;;;;;5033795;28;20463;-68
2020/12/14 01:23:19;;;;;;;4.13;3.43;;;2.80;99.90;;;;;;5033837;28;20445;-68
2020/12/14 01:25:45;;;;;;;3.30;3.07;;;2.70;99.90;;;;;;5033517;28;21063;-68
2020/12/14 01:28:12;;;;;;;3.50;3.20;;;2.70;99.90;;;;;;5034041;28;20454;-68
2020/12/14 01:30:38;;;;;;;4.33;3.53;;;2.70;99.90;;;;;;5033355;28;20982;-68
2020/12/14 01:33:04;;;;;;;3.80;3.40;;;2.80;99.90;;;;;;5033381;28;20442;-68
2020/12/14 01:35:30;;;;;;;3.90;3.33;;;2.90;99.90;;;;;;5033619;28;20442;-68
2020/12/14 01:37:56;;;;;;;4.17;3.77;;;3.00;99.90;;;;;;5033524;28;20486;-68
2020/12/14 01:40:23;;;;;;;3.77;3.07;;;3.10;99.90;;;;;;5033745;28;20433;-67
2020/12/14 01:42:50;;;;;;;4.33;3.70;;;3.20;99.90;;;;;;5033556;28;20838;-67
2020/12/14 01:45:17;;;;;;;5.30;4.10;;;3.10;99.90;;;;;;5033190;28;20815;-67
2020/12/14 01:47:44;;;;;;;4.03;3.50;;;3.10;99.90;;;;;;5033337;28;20473;-67
2020/12/14 01:50:12;;;;;;;4.07;3.33;;;3.00;99.90;;;;;;5033379;28;20441;-67
2020/12/14 01:52:40;;;;;;;3.83;3.53;;;3.00;99.90;;;;;;5033398;28;20450;-67
2020/12/14 01:55:08;;;;;;;4.40;3.27;;;3.10;99.90;;;;;;5033398;28;20443;-67
2020/12/14 01:57:37;;;;;;;4.20;3.50;;;3.10;99.90;;;;;;5032946;28;20478;-67
2020/12/14 02:00:06;;;;;;;4.73;3.30;;;3.10;99.90;;;;;;5033229;28;20504;-67
2020/12/14 02:02:32;;;;;;;4.63;3.33;;;3.20;99.90;;;;;;5033345;28;20446;-67
2020/12/14 02:04:59;;;;;;;4.03;3.17;;;3.20;99.90;;;;;;5033235;28;20434;-67
2020/12/14 02:07:25;;;;;;;4.10;3.60;;;3.10;99.90;;;;;;5033274;28;20434;-67
2020/12/14 02:09:53;;;;;;;3.97;3.67;;;2.90;99.90;;;;;;5033382;28;20439;-67
2020/12/14 02:12:21;;;;;;;4.30;3.07;;;2.80;99.90;;;;;;5032919;28;20481;-67
2020/12/14 02:14:51;;;;;;;4.03;3.63;;;2.70;99.90;;;;;;5033173;28;20443;-67
2020/12/14 02:17:19;;;;;;;4.90;3.17;;;2.60;99.90;;;;;;5033059;28;20481;-67
2020/12/14 02:19:45;;;;;;;4.70;3.40;;;2.80;99.90;;;;;;5033144;28;20425;-67
2020/12/14 02:22:11;;;;;;;4.30;3.33;;;2.80;99.90;;;;;;5033287;28;20467;-67
2020/12/14 02:24:38;;;;;;;3.80;3.03;;;2.80;99.90;;;;;;5032807;28;20909;-67
2020/12/14 02:27:05;;;;;;;3.80;3.27;;;2.70;99.90;;;;;;5033047;28;20434;-67
2020/12/14 02:29:31;;;;;;;3.50;3.20;;;2.60;99.90;;;;;;5033047;28;20449;-67
2020/12/14 02:31:57;;;;;;;3.30;2.70;;;2.60;99.90;;;;;;5032982;28;20459;-67
2020/12/14 02:34:23;;;;;;;4.80;3.00;;;2.50;99.90;;;;;;5032993;28;20436;-67
2020/12/14 02:36:49;;;;;;;3.50;2.97;;;2.50;99.90;;;;;;5032903;28;20449;-67
2020/12/14 02:39:15;;;;;;;3.20;2.90;;;2.40;99.90;;;;;;5032673;28;20439;-67
2020/12/14 02:41:43;;;;;;;3.57;3.20;;;2.40;99.90;;;;;;5032855;28;20469;-67
2020/12/14 02:44:09;;;;;;;3.67;3.33;;;2.40;99.90;;;;;;5032640;28;20446;-67
2020/12/14 02:46:35;;;;;;;3.60;3.30;;;2.30;99.90;;;;;;5032895;28;20442;-67
2020/12/14 02:49:02;;;;;;;4.10;3.40;;;2.30;99.90;;;;;;5034824;28;20413;-67
2020/12/14 02:51:28;;;;;;;8.20;3.10;;;2.30;99.90;;;;;;5036653;28;20855;-67
2020/12/14 02:53:54;;;;;;;4.40;3.00;;;2.30;99.90;;;;;;5036634;28;20442;-67
2020/12/14 02:56:20;;;;;;;4.20;3.80;;;2.20;99.90;;;;;;5036575;28;20841;-67
2020/12/14 02:58:47;;;;;;;4.70;3.80;;;2.20;99.90;;;;;;5036447;28;20474;-67
2020/12/14 03:01:14;;;;;;;4.23;3.30;;;2.20;99.90;;;;;;5036445;28;20441;-67
2020/12/14 03:03:40;;;;;;;4.97;3.73;;;2.20;99.90;;;;;;5036442;28;20438;-67
2020/12/14 03:06:06;;;;;;;5.33;4.00;;;2.20;99.90;;;;;;5036408;28;20442;-67
2020/12/14 03:08:32;;;;;;;5.10;4.33;;;2.30;99.90;;;;;;5036359;28;20438;-67
2020/12/14 03:10:58;;;;;;;7.30;4.60;;;2.30;99.90;;;;;;5036213;28;20833;-67
2020/12/14 03:13:24;;;;;;;4.80;4.07;;;2.40;99.90;;;;;;5036275;28;20449;-67
2020/12/14 03:15:51;;;;;;;8.03;5.17;;;2.40;99.90;;;;;;5036191;28;20557;-67
2020/12/14 03:18:18;;;;;;;6.77;4.90;;;2.40;99.90;;;;;;5036111;28;20494;-67
2020/12/14 03:20:45;;;;;;;6.20;4.43;;;2.40;99.90;;;;;;5036041;28;20471;-67
2020/12/14 03:23:11;;;;;;;6.80;4.97;;;2.30;99.90;;;;;;5036045;28;20450;-67
2020/12/14 03:25:41;;;;;;;6.77;3.77;;;2.30;99.90;;;;;;5036071;28;20485;-67
2020/12/14 03:28:07;;;;;;;6.20;4.70;;;2.20;99.90;;;;;;5035987;28;20439;-67
2020/12/14 03:30:33;;;;;;;6.07;4.27;;;2.20;99.90;;;;;;5035887;28;20489;-67
2020/12/14 03:33:00;;;;;;;5.37;4.20;;;2.20;99.90;;;;;;5035639;28;20423;-67
2020/12/14 03:35:26;;;;;;;6.90;3.90;;;2.30;99.90;;;;;;5035897;28;20450;-67
2020/12/14 03:37:53;;;;;;;6.67;4.20;;;2.20;99.90;;;;;;5035749;28;20514;-67
2020/12/14 03:40:19;;;;;;;6.43;4.60;;;2.20;99.90;;;;;;5035681;28;20463;-67
2020/12/14 03:42:45;;;;;;;6.13;4.70;;;2.20;99.90;;;;;;5035716;28;20453;-67
2020/12/14 03:45:11;;;;;;;6.10;4.67;;;2.20;99.90;;;;;;5035351;28;20953;-67
2020/12/14 03:47:37;;;;;;;7.10;4.70;;;2.30;99.90;;;;;;5035630;28;20446;-67
2020/12/14 03:50:04;;;;;;;6.50;4.70;;;2.30;99.90;;;;;;5035506;28;20450;-67
2020/12/14 03:52:31;;;;;;;6.10;4.60;;;2.40;99.90;;;;;;5035244;28;20795;-67
2020/12/14 03:54:57;;;;;;;4.93;4.20;;;2.30;99.90;;;;;;5035462;28;20420;-68
2020/12/14 03:57:23;;;;;;;8.80;4.77;;;2.30;99.90;;;;;;5035059;28;20448;-67
2020/12/14 03:59:49;;;;;;;6.63;4.57;;;2.40;99.90;;;;;;5034191;28;20470;-67
2020/12/14 04:02:15;;;;;;;8.40;4.67;;;2.40;99.90;;;;;;5035362;28;20439;-67
2020/12/14 04:04:42;;;;;;;6.10;4.90;;;2.40;99.90;;;;;;5034944;28;20845;-67
2020/12/14 04:07:09;;;;;;;9.13;4.70;;;2.40;99.90;;;;;;5035261;28;20438;-67
2020/12/14 04:09:35;;;;;;;7.70;4.00;;;2.40;99.90;;;;;;5035199;28;20442;-67
2020/12/14 04:12:01;;;;;;;6.40;4.60;;;2.40;99.90;;;;;;5034769;28;20474;-67
2020/12/14 04:14:27;;;;;;;5.90;4.17;;;2.40;99.90;;;;;;5035145;28;20454;-67
2020/12/14 04:16:53;;;;;;;7.27;4.80;;;2.40;99.90;;;;;;5035759;28;20462;-68
2020/12/14 04:19:22;;;;;;;5.60;4.33;;;2.40;99.90;;;;;;5035423;28;20491;-67
2020/12/14 04:21:49;;;;;;;8.60;4.80;;;2.30;99.90;;;;;;5034926;28;20509;-67
2020/12/14 04:24:17;;;;;;;8.17;5.23;;;2.30;99.90;;;;;;5034675;28;20451;-67
2020/12/14 04:26:43;;;;;;;6.57;5.00;;;2.30;99.90;;;;;;5034467;28;20445;-67
2020/12/14 04:29:09;;;;;;;7.50;4.80;;;2.20;99.90;;;;;;5034549;28;20917;-67
2020/12/14 04:31:36;;;;;;;7.60;5.00;;;2.20;99.90;;;;;;5035040;28;20466;-67
2020/12/14 04:34:02;;;;;;;5.90;4.53;;;2.20;99.90;;;;;;5034748;28;20786;-65
2020/12/14 04:36:29;;;;;;;8.00;4.83;;;2.10;99.90;;;;;;5034726;28;20446;-65
2020/12/14 04:38:56;;;;;;;6.87;4.33;;;2.10;99.90;;;;;;5034572;28;20456;-65
2020/12/14 04:41:23;;;;;;;6.13;4.80;;;2.20;99.90;;;;;;5034535;28;20466;-65
2020/12/14 04:43:50;;;;;;;6.60;4.80;;;2.10;99.90;;;;;;5034541;28;20443;-64
2020/12/14 04:46:18;;;;;;;8.47;4.80;;;2.10;99.90;;;;;;5034569;28;20426;-64
2020/12/14 04:48:45;;;;;;;9.20;4.70;;;2.10;99.90;;;;;;5034495;28;20489;-65
2020/12/14 04:51:11;;;;;;;9.27;5.40;;;2.10;99.90;;;;;;5034023;28;20807;-64
2020/12/14 04:53:41;;;;;;;8.03;5.53;;;2.10;99.90;;;;;;5034351;28;20968;-65
2020/12/14 04:56:09;;;;;;;8.83;5.20;;;2.20;99.90;;;;;;5034361;28;20508;-64
2020/12/14 04:58:37;;;;;;;7.70;4.80;;;2.20;99.90;;;;;;5034237;28;20488;-64
2020/12/14 05:01:03;;;;;;;8.00;4.97;;;2.20;99.90;;;;;;5034136;28;20475;-65
2020/12/14 05:03:30;;;;;;;6.40;4.80;;;2.20;99.90;;;;;;5034251;28;20478;-64
2020/12/14 05:05:56;;;;;;;8.83;5.70;;;2.30;99.90;;;;;;5034131;28;20424;-64
2020/12/14 05:08:26;;;;;;;7.90;4.83;;;2.20;99.90;;;;;;5033772;28;20980;-64
2020/12/14 05:10:52;;;;;;;9.20;5.33;;;2.20;99.90;;;;;;5033711;28;20498;-65
2020/12/14 05:13:18;;;;;;;7.60;4.63;;;2.20;99.90;;;;;;5033732;28;20439;-65
2020/12/14 05:15:46;;;;;;;9.60;5.37;;;2.20;99.90;;;;;;5033621;28;20435;-64
2020/12/14 05:18:15;;;;;;;11.13;5.63;;;2.20;99.90;;;;;;5033812;28;20474;-64
2020/12/14 05:20:41;;;;;;;8.67;4.70;;;2.20;99.90;;;;;;5033479;28;20461;-65
2020/12/14 05:23:09;;;;;;;7.37;4.20;;;2.20;99.90;;;;;;5033536;28;20446;-65
2020/12/14 05:25:36;;;;;;;10.00;5.13;;;2.10;99.90;;;;;;5033296;28;20472;-64
2020/12/14 05:28:16;;;;;;;10.53;5.23;;;2.10;99.90;;;;;;5033747;28;20453;-65
2020/12/14 05:30:44;;;;;;;9.07;4.90;;;2.20;99.90;;;;;;5033692;28;20505;-65
2020/12/14 05:33:13;;;;;;;10.33;5.37;;;2.20;99.90;;;;;;5033687;28;20442;-64
2020/12/14 05:35:41;;;;;;;9.03;4.87;;;2.20;99.90;;;;;;5033630;28;20454;-65
2020/12/14 05:38:19;;;;;;;9.17;5.03;;;2.20;99.90;;;;;;5033514;28;20486;-65
2020/12/14 05:40:48;;;;;;;9.63;5.40;;;2.20;99.90;;;;;;5033845;28;20458;-65
2020/12/14 05:43:15;;;;;;;8.83;4.37;;;2.10;99.90;;;;;;5033539;28;20472;-64
2020/12/14 05:45:42;;;;;;;8.43;5.47;;;2.20;99.90;;;;;;5033784;28;20421;-64
2020/12/14 05:48:23;;;;;;;7.70;5.27;;;2.20;99.90;;;;;;5033446;28;20424;-64
2020/12/14 05:50:51;;;;;;;12.40;6.47;;;2.20;99.90;;;;;;5033321;28;20454;-64
2020/12/14 05:53:19;;;;;;;18.07;6.50;;;2.20;99.90;;;;;;5033423;28;20443;-65
2020/12/14 05:55:46;;;;;;;12.83;5.73;;;2.10;99.90;;;;;;5033380;28;20478;-64
2020/12/14 05:58:14;;;;;;;14.50;5.87;;;2.20;99.90;;;;;;5033048;28;20488;-64
2020/12/14 06:00:43;;;;;;;10.90;5.67;;;2.20;99.90;;;;;;5032918;28;20982;-64
2020/12/14 06:03:10;;;;;;;10.53;5.20;;;2.20;99.90;;;;;;5033249;28;20443;-65
2020/12/14 06:05:37;;;;;;;11.70;6.87;;;2.30;99.90;;;;;;5033202;28;20417;-64
2020/12/14 06:08:20;;;;;;;9.20;5.10;;;2.20;99.90;;;;;;5033288;28;20413;-65
2020/12/14 06:10:50;;;;;;;10.23;5.83;;;2.20;99.90;;;;;;5032823;28;20835;-65
2020/12/14 06:13:23;;;;;;;10.80;5.87;;;2.20;99.90;;;;;;5032974;28;20426;-65
2020/12/14 06:15:50;;;;;;;9.77;6.20;;;2.20;99.90;;;;;;5033274;28;20824;-64
2020/12/14 06:18:21;;;;;;;13.03;6.30;;;2.20;99.90;;;;;;5033032;28;20474;-65
2020/12/14 06:20:49;;;;;;;10.97;5.67;;;2.20;99.90;;;;;;5033052;28;20487;-65
2020/12/14 06:23:17;;;;;;;11.13;5.60;;;2.20;99.90;;;;;;5033549;28;20942;-64
2020/12/14 06:25:44;;;;;;;10.27;5.80;;;2.20;99.90;;;;;;5036626;28;20503;-64
2020/12/14 06:28:32;;;;;;;12.10;6.30;;;2.20;99.90;;;;;;5037064;28;20413;-64
2020/12/14 06:30:59;;;;;;;12.80;6.57;;;2.20;99.90;;;;;;5032248;28;20474;-65
2020/12/14 06:33:36;;;;;;;11.27;7.10;;;2.20;99.90;;;;;;5037018;28;20394;-65
2020/12/14 06:36:17;;;;;;;11.67;7.10;;;2.20;99.90;;;;;;5036905;28;20442;-65
2020/12/14 06:38:44;;;;;;;12.30;6.37;;;2.20;99.90;;;;;;5036692;28;20449;-65
2020/12/14 06:41:12;;;;;;;11.03;6.43;;;2.20;99.90;;;;;;5036487;28;20433;-65
2020/12/14 06:43:39;;;;;;;11.17;6.97;;;2.20;99.90;;;;;;5036472;28;20442;-65
2020/12/14 06:46:05;;;;;;;13.30;6.80;;;2.10;99.90;;;;;;5036755;28;20792;-64
2020/12/14 06:48:43;;;;;;;12.13;7.13;;;2.10;99.90;;;;;;5036728;28;20416;-65
2020/12/14 06:51:11;;;;;;;12.60;6.70;;;2.20;99.90;;;;;;5036655;28;20863;-65
2020/12/14 06:53:49;;;;;;;13.60;7.00;;;2.10;99.90;;;;;;5037066;28;20932;-66
2020/12/14 06:56:17;;;;;;;15.70;6.80;;;2.10;99.90;;;;;;5036315;28;20890;-65
2020/12/14 06:58:45;;;;;;;12.00;6.83;;;2.10;99.90;;;;;;5036494;28;20510;-65
2020/12/14 07:01:31;;;;;;;11.40;6.27;;;2.10;99.90;;;;;;5036462;28;20462;-65
2020/12/14 07:03:57;;;;;;;14.07;7.20;;;2.10;99.90;;;;;;5036484;28;20446;-65
2020/12/14 07:06:26;;;;;;;12.00;7.00;;;2.00;99.90;;;;;;5036091;28;20450;-65
2020/12/14 07:08:53;;;;;;;11.93;7.00;;;2.10;99.90;;;;;;5036332;28;20482;-65
2020/12/14 07:11:22;;;;;;;12.00;7.60;;;2.10;99.90;;;;;;5035926;28;20458;-65
2020/12/14 07:13:49;;;;;;;14.17;6.77;;;2.10;99.90;;;;;;5036281;28;20413;-65
2020/12/14 07:16:16;;;;;;;12.10;7.20;;;2.00;99.90;;;;;;5036216;28;20438;-66
2020/12/14 07:18:45;;;;;;;12.60;7.27;;;2.00;99.90;;;;;;5036190;28;20490;-65
2020/12/14 07:21:14;;;;;;;14.17;6.93;;;2.00;99.90;;;;;;5036049;28;20489;-65
2020/12/14 07:23:42;;;;;;;10.87;6.60;;;2.00;99.90;;;;;;5035771;28;20947;-65
2020/12/14 07:26:10;;;;;;;21.70;7.40;;;2.00;99.90;;;;;;5035838;28;20478;-66
2020/12/14 07:28:38;;;;;;;11.10;6.80;;;2.00;99.90;;;;;;5035967;28;20446;-65
2020/12/14 07:31:12;;;;;;;13.20;6.00;;;2.10;99.90;;;;;;5035821;28;20463;-65
2020/12/14 07:33:40;;;;;;;17.33;7.60;;;2.10;99.90;;;;;;5035828;28;20804;-65
2020/12/14 07:36:08;;;;;;;11.20;6.43;;;2.20;99.90;;;;;;5035756;28;20430;-65
2020/12/14 07:38:44;;;;;;;21.40;7.97;;;2.20;99.90;;;;;;5035759;28;20554;-65
2020/12/14 07:41:11;;;;;;;13.57;7.30;;;2.20;99.90;;;;;;5035714;28;20825;-66
2020/12/14 07:43:54;;;;;;;16.70;8.50;;;2.40;99.90;;;;;;5036287;28;20454;-65
2020/12/14 07:46:22;;;;;;;15.03;8.13;;;2.40;99.90;;;;;;5035713;28;20434;-65
2020/12/14 07:48:56;;;;;;;14.30;8.13;;;2.40;99.90;;;;;;5035510;28;20439;-65
2020/12/14 07:51:23;;;;;;;12.83;7.13;;;2.30;99.90;;;;;;5035375;28;20474;-65
2020/12/14 07:53:50;;;;;;;15.90;8.20;;;2.40;99.90;;;;;;5035581;28;20427;-65
2020/12/14 07:56:17;;;;;;;14.00;7.53;;;2.40;99.90;;;;;;5035210;28;20457;-66
2020/12/14 07:58:48;;;;;;;16.77;7.40;;;2.50;99.90;;;;;;5035451;28;20463;-65
2020/12/14 08:01:18;;;;;;;18.53;7.50;;;2.60;99.90;;;;;;5035355;28;20462;-65
2020/12/14 08:03:45;;;;;;;10.90;6.83;;;2.60;99.90;;;;;;5035316;28;20433;-66
2020/12/14 08:06:16;;;;;;;13.50;7.47;;;2.60;99.90;;;;;;5035338;28;20419;-66
2020/12/14 08:08:47;;;;;;;12.63;7.20;;;2.60;99.90;;;;;;5035295;28;20430;-66
2020/12/14 08:11:14;;;;;;;15.53;7.93;;;2.60;99.90;;;;;;5035127;28;20461;-65
2020/12/14 08:13:43;;;;;;;16.53;8.07;;;2.70;99.90;;;;;;5034942;28;20873;-65
2020/12/14 08:16:16;;;;;;;11.90;6.87;;;2.70;99.90;;;;;;5035218;28;20431;-65
2020/12/14 08:18:44;;;;;;;13.63;7.73;;;2.80;99.90;;;;;;5035010;28;20473;-65
2020/12/14 08:21:20;;;;;;;11.50;6.93;;;2.80;99.90;;;;;;5035006;28;20454;-65
2020/12/14 08:23:46;;;;;;;13.03;7.53;;;2.90;99.90;;;;;;5035054;28;20401;-65
2020/12/14 08:26:16;;;;;;;14.00;8.00;;;2.90;99.90;;;;;;5034602;28;20486;-65
2020/12/14 08:28:45;;;;;;;13.07;7.10;;;2.90;99.90;;;;;;5034889;28;20441;-65
2020/12/14 08:31:11;;;;;;;13.10;7.33;;;3.00;99.90;;;;;;5034471;28;20989;-65
2020/12/14 08:33:49;;;;;;;17.10;8.37;;;3.10;99.90;;;;;;5034763;28;20451;-65
2020/12/14 08:36:15;;;;;;;14.40;8.17;;;3.10;99.90;;;;;;5034787;28;20419;-65
2020/12/14 08:38:41;;;;;;;13.53;8.10;;;3.10;99.90;;;;;;5034323;28;21043;-65
2020/12/14 08:41:08;;;;;;;14.23;8.33;;;3.20;99.90;;;;;;5034230;28;20804;-65
2020/12/14 08:43:35;;;;;;;14.07;8.10;;;3.20;99.90;;;;;;5034578;28;20426;-65
2020/12/14 08:46:05;;;;;;;13.63;8.80;;;3.30;99.90;;;;;;5033972;28;20458;-65
2020/12/14 08:48:33;;;;;;;13.10;7.77;;;3.30;99.90;;;;;;5034497;28;20451;-65
2020/12/14 08:51:08;;;;;;;13.97;7.83;;;3.40;99.90;;;;;;5034362;28;20465;-65
2020/12/14 08:53:34;;;;;;;15.57;8.23;;;3.50;99.90;;;;;;5034388;28;20442;-65
2020/12/14 08:56:03;;;;;;;15.57;8.97;;;3.60;99.90;;;;;;5034352;28;20451;-65
2020/12/14 08:58:29;;;;;;;14.10;8.40;;;3.80;99.90;;;;;;5034243;28;20514;-66
2020/12/14 09:00:55;;;;;;;15.83;9.00;;;3.90;99.90;;;;;;5034199;28;20463;-65
2020/12/14 09:03:23;;;;;;;13.47;8.17;;;4.00;99.90;;;;;;5034203;28;20442;-65
2020/12/14 09:05:49;;;;;;;13.10;8.13;;;4.10;99.90;;;;;;5034157;28;20442;-65
2020/12/14 09:08:17;;;;;;;11.67;7.20;;;4.20;99.90;;;;;;5033799;28;20439;-65
2020/12/14 09:10:56;;;;;;;10.53;6.77;;;4.40;99.90;;;;;;5034445;28;20463;-65
2020/12/14 09:13:22;;;;;;;10.70;6.80;;;4.60;99.90;;;;;;5034091;28;20431;-65
2020/12/14 09:15:53;;;;;;;9.50;6.20;;;4.80;99.90;;;;;;5034034;28;20474;-65
2020/12/14 09:18:19;;;;;;;10.23;6.70;;;5.10;99.90;;;;;;5033924;28;20471;-65
2020/12/14 09:20:47;;;;;;;12.00;7.60;;;5.50;99.90;;;;;;5033852;28;20470;-65
2020/12/14 09:23:18;;;;;;;8.60;6.03;;;6.60;99.90;;;;;;5033814;28;20453;-65
2020/12/14 09:25:44;;;;;;;8.20;6.27;;;8.40;99.90;;;;;;5033808;28;20473;-65
2020/12/14 09:28:10;;;;;;;8.37;6.13;;;10.50;99.90;;;;;;5033800;28;20438;-65
2020/12/14 09:30:36;;;;;;;9.43;6.27;;;12.60;99.90;;;;;;5033733;28;20474;-65
2020/12/14 09:33:03;;;;;;;7.67;6.03;;;14.30;98.00;;;;;;5033442;28;20788;-65
2020/12/14 09:35:29;;;;;;;7.27;5.00;;;14.90;90.90;;;;;;5033429;28;21013;-66
2020/12/14 09:37:56;;;;;;;6.40;5.80;;;14.60;90.10;;;;;;5033552;28;20427;-66
2020/12/14 09:40:22;;;;;;;7.30;5.30;;;14.40;90.40;;;;;;5033817;28;20458;-66
2020/12/14 09:42:48;;;;;;;6.27;5.67;;;15.00;88.10;;;;;;5033314;28;20778;-66
2020/12/14 09:45:15;;;;;;;5.73;5.13;;;16.10;81.60;;;;;;5033546;28;20455;-65
2020/12/14 09:47:44;;;;;;;5.73;5.23;;;16.60;76.50;;;;;;5033535;28;20422;-66
2020/12/14 09:50:10;;;;;;;6.10;5.30;;;16.90;74.60;;;;;;5033340;28;20424;-65
2020/12/14 09:52:36;;;;;;;5.70;5.17;;;16.70;73.50;;;;;;5033453;28;20412;-65
2020/12/14 09:55:04;;;;;;;6.67;5.77;;;15.80;73.80;;;;;;5033328;28;20748;-65
2020/12/14 09:57:31;;;;;;;6.23;5.33;;;14.70;75.90;;;;;;5032487;28;20441;-65
2020/12/14 09:59:57;;;;;;;5.13;4.63;;;13.70;81.30;;;;;;5032619;28;20993;-65
2020/12/14 10:02:23;;;;;;;5.27;4.80;;;12.70;82.20;;;;;;5033221;28;20431;-65
2020/12/14 10:04:49;;;;;;;5.63;4.80;;;11.80;85.50;;;;;;5033276;28;20423;-66
2020/12/14 10:07:15;;;;;;;5.50;4.40;;;11.20;89.80;;;;;;5033256;28;20426;-65
2020/12/14 10:09:42;;;;;;;4.93;4.53;;;10.80;91.80;;;;;;5032930;28;20430;-65
2020/12/14 10:12:09;;;;;;;4.60;4.20;;;10.40;92.70;;;;;;5033149;28;20455;-65
2020/12/14 10:14:35;;;;;;;4.60;3.80;;;10.10;93.70;;;;;;5033222;28;20442;-65
2020/12/14 10:17:02;;;;;;;7.40;4.27;;;9.80;95.40;;;;;;5033259;28;20460;-65
2020/12/14 10:19:29;;;;;;;5.60;4.77;;;9.70;95.70;;;;;;5033336;28;20557;-65
2020/12/14 10:21:55;;;;;;;4.90;4.40;;;9.50;98.60;;;;;;5032818;28;21031;-65
2020/12/14 10:24:21;;;;;;;4.97;3.93;;;9.50;99.90;;;;;;5033157;28;20446;-65
2020/12/14 10:26:49;;;;;;;4.73;3.70;;;9.60;99.90;;;;;;5032983;28;20479;-66
2020/12/14 10:29:17;;;;;;;5.90;4.30;;;9.60;99.90;;;;;;5033138;28;20423;-65
2020/12/14 10:31:44;;;;;;;5.00;4.60;;;9.60;99.90;;;;;;5033036;28;20466;-65
2020/12/14 10:34:11;;;;;;;7.17;4.67;;;9.60;99.90;;;;;;5032818;28;20911;-65
2020/12/14 10:36:37;;;;;;;5.20;3.80;;;9.50;99.90;;;;;;5033094;28;20435;-65
2020/12/14 10:39:03;;;;;;;3.93;3.50;;;9.50;99.90;;;;;;5032943;28;20830;-65
2020/12/14 10:41:29;;;;;;;4.30;3.90;;;9.50;99.90;;;;;;5032962;28;20458;-65
2020/12/14 10:43:56;;;;;;;3.60;3.30;;;9.50;99.90;;;;;;5032989;28;20430;-65
2020/12/14 10:46:25;;;;;;;4.70;3.90;;;9.50;99.90;;;;;;5033380;28;20450;-65
2020/12/14 10:48:51;;;;;;;3.90;3.30;;;9.40;99.90;;;;;;5033220;28;20423;-65
2020/12/14 10:51:17;;;;;;;3.77;3.40;;;9.60;99.90;;;;;;5032881;28;20462;-66
2020/12/14 10:53:44;;;;;;;4.40;3.77;;;9.80;99.90;;;;;;5032905;28;20435;-65
2020/12/14 10:56:10;;;;;;;3.13;2.93;;;10.10;99.90;;;;;;5032913;28;20494;-65
2020/12/14 10:58:36;;;;;;;3.60;3.30;;;10.30;99.90;;;;;;5032482;28;20807;-65
2020/12/14 11:01:02;;;;;;;5.00;3.50;;;10.60;99.90;;;;;;5032763;28;20467;-65
2020/12/14 11:03:29;;;;;;;4.83;3.17;;;10.80;99.90;;;;;;5032509;28;20427;-65
2020/12/14 11:05:56;;;;;;;3.20;2.90;;;11.00;99.50;;;;;;5032780;28;20427;-65
2020/12/14 11:08:22;;;;;;;4.00;3.60;;;11.10;99.10;;;;;;5033069;28;20438;-65
2020/12/14 11:10:48;;;;;;;5.30;3.73;;;11.20;97.20;;;;;;5035696;28;20458;-65
2020/12/14 11:13:15;;;;;;;3.93;3.53;;;11.30;96.70;;;;;;5036219;28;20431;-65
2020/12/14 11:15:41;;;;;;;4.10;3.63;;;11.20;97.10;;;;;;5036300;28;20431;-65
2020/12/14 11:18:07;;;;;;;4.70;3.50;;;11.10;98.40;;;;;;5036209;28;20415;-65
2020/12/14 11:20:34;;;;;;;4.50;3.20;;;11.00;99.00;;;;;;5036129;28;20458;-65
2020/12/14 11:23:00;;;;;;;4.77;3.90;;;11.00;99.90;;;;;;5035830;28;20817;-65
2020/12/14 11:25:26;;;;;;;4.30;3.90;;;11.10;99.40;;;;;;5035856;28;20474;-65
2020/12/14 11:27:52;;;;;;;4.03;3.73;;;11.10;98.60;;;;;;5035644;28;20977;-65
2020/12/14 11:30:19;;;;;;;4.73;4.33;;;11.10;97.50;;;;;;5035987;28;20463;-65
2020/12/14 11:32:45;;;;;;;4.03;3.70;;;11.10;97.70;;;;;;5035957;28;20419;-65
2020/12/14 11:35:11;;;;;;;5.50;3.80;;;10.90;98.40;;;;;;5036737;28;20430;-65
2020/12/14 11:37:38;;;;;;;4.77;3.40;;;10.90;99.50;;;;;;5036223;28;20415;-65
2020/12/14 11:40:06;;;;;;;7.40;2.90;;;10.90;99.40;;;;;;5035697;28;20470;-65
2020/12/14 11:42:32;;;;;;;3.20;2.90;;;11.00;99.90;;;;;;5035848;28;20437;-65
2020/12/14 11:44:58;;;;;;;3.70;2.97;;;11.00;98.30;;;;;;5035998;28;20427;-64
2020/12/14 11:47:24;;;;;;;3.40;3.10;;;11.00;98.40;;;;;;5035621;28;20427;-65
2020/12/14 11:49:51;;;;;;;3.13;2.93;;;11.00;98.00;;;;;;5035930;28;20427;-66
2020/12/14 11:52:17;;;;;;;2.83;2.63;;;11.10;96.70;;;;;;5035844;28;20424;-66
2020/12/14 11:54:44;;;;;;;2.60;2.40;;;11.00;96.70;;;;;;5035279;28;20442;-65
2020/12/14 11:57:10;;;;;;;3.20;2.97;;;10.80;97.70;;;;;;5035569;28;20438;-65
2020/12/14 11:59:36;;;;;;;3.17;2.80;;;10.80;96.80;;;;;;5035492;28;20490;-65
2020/12/14 12:02:03;;;;;;;3.10;2.83;;;10.70;98.10;;;;;;5035676;28;20466;-65
2020/12/14 12:04:29;;;;;;;3.20;3.00;;;10.70;98.80;;;;;;5035417;28;20430;-65
2020/12/14 12:06:55;;;;;;;2.60;2.30;;;10.90;97.40;;;;;;5035327;28;20446;-65
2020/12/14 12:09:21;;;;;;;4.20;3.57;;;11.00;97.80;;;;;;5035375;28;20432;-65
2020/12/14 12:11:48;;;;;;;3.67;3.10;;;11.10;97.80;;;;;;5035217;28;20454;-65
2020/12/14 12:14:14;;;;;;;3.27;2.70;;;11.30;96.80;;;;;;5035247;28;20805;-65
2020/12/14 12:16:42;;;;;;;4.30;3.13;;;11.40;96.50;;;;;;5035218;28;20434;-65
2020/12/14 12:19:08;;;;;;;3.23;3.00;;;11.50;96.30;;;;;;5035108;28;20520;-65
2020/12/14 12:21:35;;;;;;;3.30;3.10;;;11.60;95.40;;;;;;5034036;28;20462;-66
2020/12/14 12:24:01;;;;;;;3.10;2.90;;;11.50;96.10;;;;;;5035005;28;20494;-67
2020/12/14 12:26:27;;;;;;;3.30;3.00;;;11.50;96.70;;;;;;5034465;28;20994;-67
2020/12/14 12:28:54;;;;;;;3.10;2.87;;;11.60;95.90;;;;;;5034889;28;20435;-67
2020/12/14 12:31:20;;;;;;;3.73;2.63;;;11.70;95.30;;;;;;5034772;28;20458;-67
2020/12/14 12:33:46;;;;;;;2.77;2.57;;;11.70;95.30;;;;;;5034469;28;20788;-67
2020/12/14 12:36:13;;;;;;;3.33;2.50;;;11.80;95.00;;;;;;5034716;28;20434;-66
2020/12/14 12:38:40;;;;;;;6.07;2.40;;;11.70;95.30;;;;;;5034610;28;20467;-66
2020/12/14 12:41:06;;;;;;;3.00;2.70;;;11.70;95.40;;;;;;5034507;28;20478;-66
2020/12/14 12:43:32;;;;;;;2.17;1.97;;;11.50;97.20;;;;;;5034604;28;20427;-66
2020/12/14 12:45:59;;;;;;;2.30;2.13;;;11.40;96.70;;;;;;5034499;28;20427;-67
2020/12/14 12:48:26;;;;;;;2.63;2.20;;;11.40;96.00;;;;;;5034201;28;20903;-67
2020/12/14 12:50:55;;;;;;;2.20;2.10;;;11.40;95.90;;;;;;5034081;28;20999;-68
2020/12/14 12:53:23;;;;;;;2.40;2.23;;;11.40;96.00;;;;;;5034437;28;20514;-66